KTCC

Tucumcari Municipal Airport

Tucumcari, New Mexico, USA
KTCC 202320Z 2100/2124 15007KT 5SM HZ FEW080 FM210300 13007KT 5SM HZ SKC FM211300 21012G20KT P6SM SKC FM212000 21015G25KT P6SM SCT080 SCT150
Issued Valid From Valid To
Aug-20 @ 23:20 UTC
(18 hours ago)
Aug-21 @ 00:00 UTC
(18 hours ago)
Aug-22 @ 00:00 UTC
(in 6 hours)
Expired Click to View Aug-21 @ 00:00 to Aug-21 @ 03:00
KTCC 202320Z 2100/2124 15007KT 5SM HZ FEW080
Wind Visibility Clouds Conditions
150° at 7 knots 5 miles
  • Few at 8,000' AGL
  • Haze
Expired Click to View Aug-21 @ 03:00 to Aug-21 @ 13:00
FM210300 13007KT 5SM HZ SKC
Wind Visibility Clouds Conditions
130° at 7 knots 5 miles
  • Clear skies
  • Haze
From Aug-21 @ 13:00 to Aug-21 @ 20:00
FM211300 21012G20KT P6SM SKC
Wind Visibility Clouds
210° at 12 knots
 Gusting to 20 knots
Greater than 6 miles
  • Clear skies
From Aug-21 @ 20:00 to Aug-22 @ 00:00
FM212000 21015G25KT P6SM SCT080 SCT150
Wind Visibility Clouds
210° at 15 knots
 Gusting to 25 knots
Greater than 6 miles
  • Scattered at 8,000' AGL
  • Scattered at 15,000' AGL
KTCC 202320Z 2100/2124 15007KT 5SM HZ FEW080 FM210300 13007KT 5SM HZ SKC FM211300 21012G20KT P6SM SKC FM212000 21015G25KT P6SM SCT080 SCT150
Issued Aug-20 @ 23:20 UTC
(18 hours ago)
Valid From Aug-21 @ 00:00 UTC
(18 hours ago)
Valid To Aug-22 @ 00:00 UTC
(in 6 hours)
Aug-21 @ 00:00 - Aug-21 @ 03:00
Wind Visibility
150° at 7 knots 5 miles
Clouds
  • Few at 8,000' AGL
Conditions
  • Haze
Aug-21 @ 03:00 - Aug-21 @ 13:00
Wind Visibility
130° at 7 knots 5 miles
Clouds
  • Clear skies
Conditions
  • Haze
From Aug-21 @ 13:00 - Aug-21 @ 20:00
Wind Visibility
210° at 12 knots
 Gusting to 20 knots
Greater than 6 miles
Clouds
  • Clear skies
From Aug-21 @ 20:00 - Aug-22 @ 00:00
Wind Visibility
210° at 15 knots
 Gusting to 25 knots
Greater than 6 miles
Clouds
  • Scattered at 8,000' AGL
  • Scattered at 15,000' AGL